KLM1972 LDSP-EHAM
Flight info
| Callsign | KLM1972 |
|---|---|
| Flight time | 2h 4m |
| Altitude | 38000 |
| Route | ZDA DCT EBITA DCT PUL DCT NAKIT DCT PEVAL DCT BRENO DCT KONIN M726 MAH DCT ASPAT DCT MASEK DCT MAPOX DCT NORKU |
| Aircraft | B738/M-SDE2E3FGHIRWXY/LB1 |
Departure
| Time | 2026-04-29 11:21 |
|---|---|
| Airport | Split Saint Jerome Airport (LDSP) |
Arrival
| Time | 2026-04-29 13:25 |
|---|---|
| Airport | Amsterdam Airport Schiphol (EHAM) |
| Time | Latitude | Longitude | Altitude | Speed | Heading |
|---|---|---|---|---|---|
| 2026-04-29 11:07 | 43.53764 | 16.29932 | 60 ft | 0 kts | 114° |
| 2026-04-29 11:19 | 43.53764 | 16.29942 | 67 ft | 5 kts | 88° |
| 2026-04-29 11:19 | 43.53788 | 16.29936 | 58 ft | 5 kts | 293° |
| 2026-04-29 11:19 | 43.53795 | 16.29877 | 60 ft | 9 kts | 261° |
| 2026-04-29 11:20 | 43.53743 | 16.29766 | 63 ft | 16 kts | 233° |
| 2026-04-29 11:20 | 43.53678 | 16.29648 | 58 ft | 15 kts | 237° |
| 2026-04-29 11:20 | 43.53699 | 16.29515 | 75 ft | 14 kts | 285° |
| 2026-04-29 11:20 | 43.53725 | 16.29492 | 78 ft | 3 kts | 46° |
| 2026-04-29 11:21 | 43.53877 | 16.29765 | 71 ft | 79 kts | 53° |
| 2026-04-29 11:21 | 43.54367 | 16.30662 | 106 ft | 148 kts | 55° |
| 2026-04-29 11:21 | 43.54993 | 16.31880 | 847 ft | 159 kts | 56° |
| 2026-04-29 11:21 | 43.55649 | 16.33192 | 1590 ft | 179 kts | 54° |
| 2026-04-29 11:22 | 43.56235 | 16.34722 | 2486 ft | 187 kts | 84° |
| 2026-04-29 11:22 | 43.55905 | 16.36437 | 3443 ft | 191 kts | 124° |
| 2026-04-29 11:22 | 43.54860 | 16.37551 | 4351 ft | 194 kts | 159° |
| 2026-04-29 11:22 | 43.53573 | 16.38170 | 5098 ft | 198 kts | 160° |
| 2026-04-29 11:23 | 43.52266 | 16.38805 | 5451 ft | 200 kts | 161° |
| 2026-04-29 11:23 | 43.50939 | 16.39440 | 5488 ft | 203 kts | 161° |
| 2026-04-29 11:23 | 43.49609 | 16.40074 | 5494 ft | 201 kts | 161° |
| 2026-04-29 11:23 | 43.48286 | 16.40704 | 5488 ft | 201 kts | 161° |
| 2026-04-29 11:24 | 43.46976 | 16.41289 | 5494 ft | 200 kts | 169° |
| 2026-04-29 11:24 | 43.45624 | 16.41001 | 5509 ft | 199 kts | 213° |
| 2026-04-29 11:24 | 43.44628 | 16.39584 | 5669 ft | 219 kts | 232° |
| 2026-04-29 11:24 | 43.43653 | 16.37836 | 5888 ft | 247 kts | 232° |
| 2026-04-29 11:25 | 43.42554 | 16.35855 | 6298 ft | 270 kts | 232° |
| 2026-04-29 11:25 | 43.41404 | 16.33778 | 7187 ft | 275 kts | 232° |
| 2026-04-29 11:25 | 43.40237 | 16.31675 | 8122 ft | 279 kts | 232° |
| 2026-04-29 11:25 | 43.39051 | 16.29544 | 9054 ft | 282 kts | 232° |
| 2026-04-29 11:26 | 43.36633 | 16.25210 | 10726 ft | 297 kts | 234° |
| 2026-04-29 11:26 | 43.35730 | 16.22550 | 10921 ft | 323 kts | 260° |
| 2026-04-29 11:26 | 43.35834 | 16.19380 | 11133 ft | 348 kts | 287° |
| 2026-04-29 11:27 | 43.37093 | 16.16484 | 11635 ft | 362 kts | 314° |
| 2026-04-29 11:27 | 43.39031 | 16.14240 | 12440 ft | 365 kts | 320° |
| 2026-04-29 11:27 | 43.41058 | 16.12122 | 13265 ft | 368 kts | 321° |
| 2026-04-29 11:27 | 43.43110 | 16.10006 | 14055 ft | 370 kts | 321° |
| 2026-04-29 11:28 | 43.45166 | 16.07862 | 14854 ft | 372 kts | 321° |
| 2026-04-29 11:28 | 43.47222 | 16.05682 | 15636 ft | 374 kts | 320° |
| 2026-04-29 11:28 | 43.49276 | 16.03474 | 16350 ft | 376 kts | 320° |
| 2026-04-29 11:28 | 43.51337 | 16.01233 | 17079 ft | 378 kts | 319° |
| 2026-04-29 11:29 | 43.53405 | 15.98969 | 17791 ft | 381 kts | 319° |
| 2026-04-29 11:29 | 43.55482 | 15.96685 | 18431 ft | 384 kts | 319° |
| 2026-04-29 11:29 | 43.57579 | 15.94373 | 19043 ft | 387 kts | 319° |
| 2026-04-29 11:29 | 43.59665 | 15.92069 | 19661 ft | 391 kts | 319° |
| 2026-04-29 11:30 | 43.61791 | 15.89719 | 20232 ft | 394 kts | 319° |
| 2026-04-29 11:30 | 43.63945 | 15.87335 | 20740 ft | 399 kts | 319° |
| 2026-04-29 11:30 | 43.66117 | 15.84929 | 21257 ft | 402 kts | 319° |
| 2026-04-29 11:30 | 43.68305 | 15.82504 | 21778 ft | 405 kts | 319° |
| 2026-04-29 11:31 | 43.70510 | 15.80059 | 22269 ft | 408 kts | 319° |
| 2026-04-29 11:31 | 43.72729 | 15.77593 | 22734 ft | 411 kts | 319° |
| 2026-04-29 11:31 | 43.74968 | 15.75105 | 23164 ft | 415 kts | 319° |
| 2026-04-29 11:31 | 43.77229 | 15.72589 | 23605 ft | 418 kts | 319° |
| 2026-04-29 11:32 | 43.79503 | 15.70055 | 24048 ft | 421 kts | 319° |
| 2026-04-29 11:32 | 43.81794 | 15.67502 | 24479 ft | 423 kts | 319° |
| 2026-04-29 11:32 | 43.84096 | 15.64932 | 24904 ft | 426 kts | 319° |
| 2026-04-29 11:32 | 43.86404 | 15.62354 | 25340 ft | 427 kts | 319° |
| 2026-04-29 11:33 | 43.88694 | 15.59793 | 25749 ft | 429 kts | 319° |
| 2026-04-29 11:33 | 43.91021 | 15.57188 | 26152 ft | 431 kts | 319° |
| 2026-04-29 11:33 | 43.93357 | 15.54571 | 26535 ft | 432 kts | 319° |
| 2026-04-29 11:33 | 43.95700 | 15.51942 | 26890 ft | 434 kts | 319° |
| 2026-04-29 11:34 | 43.98057 | 15.49294 | 27231 ft | 436 kts | 319° |
| 2026-04-29 11:34 | 44.00424 | 15.46633 | 27561 ft | 438 kts | 319° |
| 2026-04-29 11:34 | 44.02798 | 15.43962 | 27922 ft | 439 kts | 319° |
| 2026-04-29 11:34 | 44.05167 | 15.41293 | 28335 ft | 438 kts | 319° |
| 2026-04-29 11:35 | 44.07529 | 15.38629 | 28774 ft | 436 kts | 318° |
| 2026-04-29 11:35 | 44.09801 | 15.35864 | 29226 ft | 432 kts | 310° |
| 2026-04-29 11:35 | 44.11543 | 15.32499 | 29696 ft | 427 kts | 301° |
| 2026-04-29 11:35 | 44.13163 | 15.29052 | 30176 ft | 424 kts | 302° |
| 2026-04-29 11:36 | 44.14801 | 15.25638 | 30571 ft | 423 kts | 302° |
| 2026-04-29 11:36 | 44.16450 | 15.22246 | 30947 ft | 422 kts | 302° |
| 2026-04-29 11:36 | 44.18076 | 15.18920 | 31378 ft | 420 kts | 302° |
| 2026-04-29 11:36 | 44.19719 | 15.15566 | 31810 ft | 418 kts | 302° |
| 2026-04-29 11:37 | 44.21352 | 15.12230 | 32189 ft | 416 kts | 302° |
| 2026-04-29 11:37 | 44.22982 | 15.08894 | 32535 ft | 416 kts | 302° |
| 2026-04-29 11:37 | 44.24605 | 15.05566 | 32878 ft | 415 kts | 302° |
| 2026-04-29 11:37 | 44.26225 | 15.02240 | 33263 ft | 413 kts | 302° |
| 2026-04-29 11:38 | 44.27832 | 14.98935 | 33630 ft | 411 kts | 302° |
| 2026-04-29 11:38 | 44.29433 | 14.95640 | 33966 ft | 410 kts | 302° |
| 2026-04-29 11:38 | 44.31029 | 14.92351 | 34280 ft | 409 kts | 302° |
| 2026-04-29 11:38 | 44.32622 | 14.89065 | 34547 ft | 409 kts | 302° |
| 2026-04-29 11:39 | 44.34218 | 14.85767 | 34785 ft | 410 kts | 302° |
| 2026-04-29 11:39 | 44.35814 | 14.82469 | 35087 ft | 409 kts | 302° |
| 2026-04-29 11:39 | 44.37405 | 14.79176 | 35390 ft | 408 kts | 302° |
| 2026-04-29 11:39 | 44.39040 | 14.75929 | 35657 ft | 409 kts | 306° |
| 2026-04-29 11:40 | 44.40861 | 14.72866 | 35906 ft | 410 kts | 307° |
| 2026-04-29 11:40 | 44.42710 | 14.69828 | 36106 ft | 411 kts | 308° |
| 2026-04-29 11:40 | 44.44568 | 14.66784 | 36341 ft | 411 kts | 308° |
| 2026-04-29 11:40 | 44.46418 | 14.63745 | 36582 ft | 411 kts | 307° |
| 2026-04-29 11:41 | 44.48262 | 14.60700 | 36911 ft | 408 kts | 307° |
| 2026-04-29 11:41 | 44.50077 | 14.57694 | 37415 ft | 400 kts | 307° |
| 2026-04-29 11:41 | 44.51860 | 14.54732 | 37760 ft | 397 kts | 307° |
| 2026-04-29 11:41 | 44.53620 | 14.51794 | 37858 ft | 400 kts | 307° |
| 2026-04-29 11:42 | 44.57220 | 14.45780 | 38158 ft | 402 kts | 307° |
| 2026-04-29 11:42 | 44.59015 | 14.42778 | 38405 ft | 401 kts | 307° |
| 2026-04-29 11:42 | 44.60806 | 14.39779 | 38576 ft | 401 kts | 307° |
| 2026-04-29 11:43 | 44.64395 | 14.33758 | 38914 ft | 402 kts | 307° |
| 2026-04-29 11:43 | 44.65605 | 14.31724 | 39041 ft | 402 kts | 307° |
| 2026-04-29 11:43 | 44.67399 | 14.28709 | 39189 ft | 402 kts | 307° |
| 2026-04-29 11:44 | 44.71001 | 14.22645 | 39368 ft | 406 kts | 307° |
| 2026-04-29 11:44 | 44.72809 | 14.19595 | 39520 ft | 406 kts | 307° |
| 2026-04-29 11:44 | 44.74617 | 14.16545 | 39680 ft | 406 kts | 307° |
| 2026-04-29 11:45 | 44.78238 | 14.10421 | 39893 ft | 408 kts | 307° |
| 2026-04-29 11:45 | 44.80054 | 14.07347 | 40046 ft | 408 kts | 307° |
| 2026-04-29 11:45 | 44.81843 | 14.04313 | 40069 ft | 410 kts | 307° |
| 2026-04-29 11:46 | 44.85494 | 13.98111 | 40080 ft | 411 kts | 307° |
| 2026-04-29 11:46 | 44.89142 | 13.91904 | 40077 ft | 411 kts | 307° |
| 2026-04-29 11:47 | 44.92901 | 13.85832 | 40077 ft | 411 kts | 309° |
| 2026-04-29 11:47 | 44.96743 | 13.79850 | 40070 ft | 411 kts | 309° |
| 2026-04-29 11:48 | 45.00565 | 13.73848 | 40078 ft | 411 kts | 309° |
| 2026-04-29 11:48 | 45.04369 | 13.67821 | 40078 ft | 411 kts | 309° |
| 2026-04-29 11:49 | 45.08165 | 13.61785 | 40084 ft | 410 kts | 309° |
| 2026-04-29 11:49 | 45.11952 | 13.55748 | 40081 ft | 410 kts | 309° |
| 2026-04-29 11:50 | 45.15736 | 13.49707 | 40084 ft | 410 kts | 309° |
| 2026-04-29 11:50 | 45.19510 | 13.43664 | 40084 ft | 409 kts | 309° |
| 2026-04-29 11:51 | 45.23259 | 13.37581 | 40083 ft | 409 kts | 309° |
| 2026-04-29 11:51 | 45.27001 | 13.31485 | 40084 ft | 409 kts | 309° |
| 2026-04-29 11:52 | 45.30769 | 13.25409 | 40081 ft | 410 kts | 312° |
| 2026-04-29 11:52 | 45.35178 | 13.20283 | 40089 ft | 414 kts | 320° |
| 2026-04-29 11:53 | 45.39786 | 13.15371 | 40095 ft | 414 kts | 320° |
| 2026-04-29 11:53 | 45.44387 | 13.10427 | 40093 ft | 415 kts | 320° |
| 2026-04-29 11:54 | 45.48980 | 13.05453 | 40114 ft | 415 kts | 319° |
| 2026-04-29 11:54 | 45.53569 | 13.00463 | 40116 ft | 415 kts | 319° |
| 2026-04-29 11:55 | 45.58160 | 12.95457 | 40120 ft | 415 kts | 319° |
| 2026-04-29 11:55 | 45.62755 | 12.90437 | 40121 ft | 416 kts | 319° |
| 2026-04-29 11:56 | 45.67347 | 12.85409 | 40128 ft | 416 kts | 319° |
| 2026-04-29 11:56 | 45.71942 | 12.80367 | 40130 ft | 416 kts | 319° |
| 2026-04-29 11:57 | 45.76533 | 12.75319 | 40129 ft | 416 kts | 319° |
| 2026-04-29 11:57 | 45.81124 | 12.70261 | 40129 ft | 416 kts | 319° |
| 2026-04-29 11:58 | 45.85711 | 12.65197 | 40134 ft | 416 kts | 319° |
| 2026-04-29 11:58 | 45.90296 | 12.60122 | 40135 ft | 416 kts | 319° |
| 2026-04-29 11:59 | 45.94854 | 12.55068 | 40128 ft | 416 kts | 319° |
| 2026-04-29 11:59 | 45.99433 | 12.49980 | 40129 ft | 416 kts | 319° |
| 2026-04-29 12:00 | 46.04013 | 12.44879 | 40137 ft | 416 kts | 319° |
| 2026-04-29 12:00 | 46.08596 | 12.39764 | 40127 ft | 417 kts | 319° |
| 2026-04-29 12:01 | 46.13177 | 12.34640 | 40136 ft | 417 kts | 319° |
| 2026-04-29 12:01 | 46.17752 | 12.29511 | 40136 ft | 417 kts | 319° |
| 2026-04-29 12:02 | 46.22322 | 12.24378 | 40142 ft | 416 kts | 319° |
| 2026-04-29 12:02 | 46.26878 | 12.19250 | 40145 ft | 415 kts | 319° |
| 2026-04-29 12:03 | 46.31420 | 12.14125 | 40181 ft | 414 kts | 319° |
| 2026-04-29 12:03 | 46.35964 | 12.08987 | 40187 ft | 414 kts | 319° |
| 2026-04-29 12:04 | 46.40503 | 12.03843 | 40193 ft | 415 kts | 319° |
| 2026-04-29 12:04 | 46.45027 | 11.98706 | 40196 ft | 416 kts | 319° |
| 2026-04-29 12:05 | 46.49589 | 11.93512 | 40200 ft | 417 kts | 319° |
| 2026-04-29 12:05 | 46.54162 | 11.88297 | 40196 ft | 418 kts | 319° |
| 2026-04-29 12:06 | 46.58743 | 11.83061 | 40202 ft | 419 kts | 319° |
| 2026-04-29 12:06 | 46.63328 | 11.77809 | 40204 ft | 420 kts | 319° |
| 2026-04-29 12:07 | 46.67918 | 11.72538 | 40200 ft | 421 kts | 319° |
| 2026-04-29 12:07 | 46.72520 | 11.67242 | 40201 ft | 422 kts | 319° |
| 2026-04-29 12:08 | 46.77122 | 11.61934 | 40156 ft | 421 kts | 319° |
| 2026-04-29 12:08 | 46.81700 | 11.56643 | 40169 ft | 419 kts | 319° |
| 2026-04-29 12:09 | 46.86264 | 11.51355 | 40171 ft | 419 kts | 319° |
| 2026-04-29 12:09 | 46.90824 | 11.46060 | 40161 ft | 418 kts | 319° |
| 2026-04-29 12:10 | 46.95387 | 11.40896 | 40153 ft | 419 kts | 326° |
| 2026-04-29 12:10 | 46.98020 | 11.39047 | 40183 ft | 422 kts | 337° |
| 2026-04-29 12:10 | 47.00860 | 11.37864 | 40162 ft | 426 kts | 345° |
| 2026-04-29 12:11 | 47.06823 | 11.37406 | 40157 ft | 432 kts | 355° |
| 2026-04-29 12:11 | 47.12829 | 11.37453 | 40164 ft | 431 kts | 355° |
| 2026-04-29 12:12 | 47.18834 | 11.37465 | 40151 ft | 432 kts | 355° |
| 2026-04-29 12:12 | 47.24853 | 11.37424 | 40162 ft | 433 kts | 355° |
| 2026-04-29 12:13 | 47.30887 | 11.37363 | 40154 ft | 434 kts | 355° |
| 2026-04-29 12:13 | 47.36930 | 11.37299 | 40158 ft | 435 kts | 355° |
| 2026-04-29 12:14 | 47.43000 | 11.37236 | 40159 ft | 437 kts | 355° |
| 2026-04-29 12:14 | 47.49078 | 11.37175 | 40167 ft | 437 kts | 355° |
| 2026-04-29 12:15 | 47.55164 | 11.37113 | 40173 ft | 437 kts | 355° |
| 2026-04-29 12:15 | 47.61256 | 11.37051 | 40176 ft | 438 kts | 355° |
| 2026-04-29 12:16 | 47.67347 | 11.36988 | 40180 ft | 438 kts | 355° |
| 2026-04-29 12:16 | 47.73401 | 11.36926 | 40192 ft | 437 kts | 355° |
| 2026-04-29 12:17 | 47.79490 | 11.36863 | 40195 ft | 437 kts | 355° |
| 2026-04-29 12:17 | 47.85567 | 11.36801 | 40204 ft | 436 kts | 355° |
| 2026-04-29 12:18 | 47.91616 | 11.36400 | 40202 ft | 434 kts | 352° |
| 2026-04-29 12:18 | 47.97648 | 11.35794 | 40208 ft | 434 kts | 352° |
| 2026-04-29 12:19 | 48.03682 | 11.35260 | 40209 ft | 434 kts | 353° |
| 2026-04-29 12:19 | 48.09689 | 11.34559 | 40212 ft | 432 kts | 349° |
| 2026-04-29 12:20 | 48.15639 | 11.33326 | 40212 ft | 431 kts | 348° |
| 2026-04-29 12:20 | 48.21584 | 11.32115 | 40213 ft | 431 kts | 349° |
| 2026-04-29 12:21 | 48.27467 | 11.30544 | 40205 ft | 427 kts | 339° |
| 2026-04-29 12:21 | 48.32950 | 11.27230 | 40209 ft | 425 kts | 335° |
| 2026-04-29 12:22 | 48.38364 | 11.23804 | 40213 ft | 425 kts | 335° |
| 2026-04-29 12:22 | 48.43829 | 11.20379 | 40213 ft | 426 kts | 335° |
| 2026-04-29 12:23 | 48.49305 | 11.16970 | 40212 ft | 426 kts | 335° |
| 2026-04-29 12:23 | 48.54792 | 11.13556 | 40211 ft | 427 kts | 335° |
| 2026-04-29 12:24 | 48.60265 | 11.10126 | 40205 ft | 425 kts | 335° |
| 2026-04-29 12:24 | 48.65741 | 11.06699 | 40210 ft | 426 kts | 335° |
| 2026-04-29 12:25 | 48.71213 | 11.03281 | 40215 ft | 426 kts | 335° |
| 2026-04-29 12:26 | 48.79428 | 10.98125 | 40206 ft | 427 kts | 336° |
| 2026-04-29 12:26 | 48.84944 | 10.94731 | 40206 ft | 427 kts | 335° |
| 2026-04-29 12:26 | 48.87697 | 10.92981 | 39983 ft | 432 kts | 335° |
| 2026-04-29 12:27 | 48.90468 | 10.91200 | 39747 ft | 433 kts | 335° |
| 2026-04-29 12:27 | 48.93237 | 10.89422 | 39495 ft | 431 kts | 335° |
| 2026-04-29 12:27 | 48.95985 | 10.87667 | 39238 ft | 426 kts | 335° |
| 2026-04-29 12:27 | 48.98713 | 10.85931 | 38989 ft | 423 kts | 335° |
| 2026-04-29 12:28 | 49.01428 | 10.84204 | 38742 ft | 422 kts | 335° |
| 2026-04-29 12:28 | 49.04132 | 10.82482 | 38496 ft | 421 kts | 335° |
| 2026-04-29 12:28 | 49.06831 | 10.80763 | 38305 ft | 421 kts | 335° |
| 2026-04-29 12:29 | 49.12233 | 10.77318 | 38256 ft | 422 kts | 335° |
| 2026-04-29 12:29 | 49.17682 | 10.73829 | 38256 ft | 427 kts | 335° |
| 2026-04-29 12:30 | 49.23130 | 10.70217 | 38255 ft | 427 kts | 334° |
| 2026-04-29 12:30 | 49.27604 | 10.67005 | 38258 ft | 427 kts | 333° |
| 2026-04-29 12:31 | 49.32980 | 10.63107 | 38256 ft | 428 kts | 334° |
| 2026-04-29 12:31 | 49.38369 | 10.59223 | 38257 ft | 428 kts | 334° |
| 2026-04-29 12:32 | 49.43762 | 10.55348 | 38257 ft | 428 kts | 334° |
| 2026-04-29 12:32 | 49.49153 | 10.51472 | 38259 ft | 427 kts | 334° |
| 2026-04-29 12:33 | 49.54538 | 10.47590 | 38258 ft | 427 kts | 334° |
| 2026-04-29 12:33 | 49.59920 | 10.43706 | 38261 ft | 427 kts | 334° |
| 2026-04-29 12:34 | 49.65297 | 10.39817 | 38255 ft | 427 kts | 334° |
| 2026-04-29 12:34 | 49.70677 | 10.35907 | 38257 ft | 427 kts | 334° |
| 2026-04-29 12:35 | 49.76049 | 10.31994 | 38262 ft | 427 kts | 335° |
| 2026-04-29 12:35 | 49.81421 | 10.28074 | 38256 ft | 427 kts | 335° |
| 2026-04-29 12:36 | 49.86795 | 10.24142 | 38261 ft | 427 kts | 335° |
| 2026-04-29 12:36 | 49.92128 | 10.20236 | 38268 ft | 427 kts | 335° |
| 2026-04-29 12:37 | 49.97530 | 10.16262 | 38264 ft | 427 kts | 335° |
| 2026-04-29 12:37 | 50.02865 | 10.12330 | 38269 ft | 427 kts | 335° |
| 2026-04-29 12:38 | 50.08236 | 10.08362 | 38276 ft | 427 kts | 335° |
| 2026-04-29 12:38 | 50.13612 | 10.04381 | 38277 ft | 428 kts | 335° |
| 2026-04-29 12:39 | 50.18985 | 10.00395 | 38285 ft | 428 kts | 335° |
| 2026-04-29 12:39 | 50.24367 | 9.96389 | 38295 ft | 429 kts | 335° |
| 2026-04-29 12:40 | 50.29752 | 9.92366 | 38303 ft | 429 kts | 335° |
| 2026-04-29 12:40 | 50.35135 | 9.88341 | 38310 ft | 429 kts | 335° |
| 2026-04-29 12:41 | 50.40520 | 9.84304 | 38312 ft | 429 kts | 335° |
| 2026-04-29 12:41 | 50.45908 | 9.80254 | 38314 ft | 429 kts | 335° |
| 2026-04-29 12:42 | 50.51283 | 9.76203 | 38315 ft | 429 kts | 335° |
| 2026-04-29 12:42 | 50.56660 | 9.72143 | 38322 ft | 428 kts | 335° |
| 2026-04-29 12:43 | 50.62028 | 9.68071 | 38317 ft | 428 kts | 335° |
| 2026-04-29 12:43 | 50.67400 | 9.63990 | 38331 ft | 428 kts | 335° |
| 2026-04-29 12:44 | 50.72567 | 9.59341 | 38330 ft | 430 kts | 324° |
| 2026-04-29 12:44 | 50.76787 | 9.52632 | 38344 ft | 433 kts | 312° |
| 2026-04-29 12:45 | 50.80559 | 9.45294 | 38339 ft | 433 kts | 311° |
| 2026-04-29 12:45 | 50.84362 | 9.37882 | 38336 ft | 434 kts | 312° |
| 2026-04-29 12:46 | 50.88185 | 9.30489 | 38349 ft | 434 kts | 312° |
| 2026-04-29 12:46 | 50.92021 | 9.23083 | 38347 ft | 435 kts | 312° |
| 2026-04-29 12:47 | 50.95857 | 9.15656 | 38339 ft | 436 kts | 312° |
| 2026-04-29 12:47 | 50.99692 | 9.08206 | 38342 ft | 436 kts | 312° |
| 2026-04-29 12:48 | 51.03530 | 9.00739 | 38351 ft | 436 kts | 312° |
| 2026-04-29 12:48 | 51.07360 | 8.93245 | 38336 ft | 437 kts | 312° |
| 2026-04-29 12:49 | 51.11196 | 8.85740 | 38341 ft | 438 kts | 312° |
| 2026-04-29 12:49 | 51.15127 | 8.78337 | 38348 ft | 437 kts | 316° |
| 2026-04-29 12:50 | 51.19352 | 8.71392 | 38354 ft | 436 kts | 318° |
| 2026-04-29 12:50 | 51.23622 | 8.64514 | 38349 ft | 436 kts | 317° |
| 2026-04-29 12:51 | 51.27838 | 8.57643 | 38347 ft | 436 kts | 317° |
| 2026-04-29 12:51 | 51.32062 | 8.50667 | 38347 ft | 437 kts | 317° |
| 2026-04-29 12:52 | 51.36286 | 8.43649 | 38341 ft | 438 kts | 317° |
| 2026-04-29 12:52 | 51.40517 | 8.36606 | 38347 ft | 439 kts | 317° |
| 2026-04-29 12:53 | 51.44741 | 8.29560 | 38351 ft | 439 kts | 317° |
| 2026-04-29 12:53 | 51.48963 | 8.22491 | 38352 ft | 439 kts | 317° |
| 2026-04-29 12:54 | 51.53182 | 8.15402 | 38353 ft | 439 kts | 318° |
| 2026-04-29 12:54 | 51.57401 | 8.08299 | 38347 ft | 439 kts | 317° |
| 2026-04-29 12:55 | 51.61619 | 8.01177 | 38350 ft | 440 kts | 317° |
| 2026-04-29 12:55 | 51.65837 | 7.94033 | 38354 ft | 440 kts | 317° |
| 2026-04-29 12:56 | 51.70048 | 7.86874 | 38360 ft | 440 kts | 318° |
| 2026-04-29 12:56 | 51.74254 | 7.79713 | 38359 ft | 439 kts | 317° |
| 2026-04-29 12:57 | 51.78461 | 7.72530 | 38357 ft | 441 kts | 317° |
| 2026-04-29 12:57 | 51.82671 | 7.65320 | 38354 ft | 441 kts | 317° |
| 2026-04-29 12:58 | 51.86873 | 7.58116 | 38359 ft | 440 kts | 317° |
| 2026-04-29 12:58 | 51.91066 | 7.50876 | 38370 ft | 441 kts | 317° |
| 2026-04-29 12:58 | 51.93171 | 7.47239 | 38161 ft | 445 kts | 317° |
| 2026-04-29 12:59 | 51.95267 | 7.43615 | 37666 ft | 445 kts | 317° |
| 2026-04-29 12:59 | 51.97377 | 7.39957 | 37034 ft | 443 kts | 317° |
| 2026-04-29 12:59 | 51.99507 | 7.36260 | 36406 ft | 443 kts | 318° |
| 2026-04-29 12:59 | 52.01582 | 7.32656 | 35720 ft | 443 kts | 319° |
| 2026-04-29 13:00 | 52.03691 | 7.28989 | 34996 ft | 445 kts | 319° |
| 2026-04-29 13:00 | 52.05808 | 7.25303 | 34259 ft | 447 kts | 320° |
| 2026-04-29 13:00 | 52.07932 | 7.21597 | 33485 ft | 449 kts | 320° |
| 2026-04-29 13:00 | 52.10067 | 7.17866 | 32697 ft | 452 kts | 320° |
| 2026-04-29 13:01 | 52.12212 | 7.14112 | 31883 ft | 454 kts | 320° |
| 2026-04-29 13:01 | 52.14369 | 7.10330 | 31013 ft | 456 kts | 320° |
| 2026-04-29 13:01 | 52.16530 | 7.06532 | 30134 ft | 458 kts | 320° |
| 2026-04-29 13:01 | 52.18700 | 7.02717 | 29217 ft | 460 kts | 319° |
| 2026-04-29 13:02 | 52.20866 | 6.98899 | 28583 ft | 455 kts | 319° |
| 2026-04-29 13:02 | 52.22965 | 6.95063 | 27949 ft | 453 kts | 316° |
| 2026-04-29 13:02 | 52.24946 | 6.91119 | 27353 ft | 447 kts | 315° |
| 2026-04-29 13:02 | 52.26883 | 6.87144 | 26774 ft | 448 kts | 314° |
| 2026-04-29 13:03 | 52.28830 | 6.83154 | 26191 ft | 450 kts | 314° |
| 2026-04-29 13:03 | 52.30796 | 6.79171 | 25585 ft | 448 kts | 314° |
| 2026-04-29 13:03 | 52.32745 | 6.75242 | 24985 ft | 442 kts | 314° |
| 2026-04-29 13:03 | 52.34675 | 6.71359 | 24410 ft | 437 kts | 314° |
| 2026-04-29 13:04 | 52.36579 | 6.67525 | 23838 ft | 432 kts | 314° |
| 2026-04-29 13:04 | 52.38464 | 6.63727 | 23260 ft | 428 kts | 314° |
| 2026-04-29 13:04 | 52.40329 | 6.59962 | 22711 ft | 424 kts | 314° |
| 2026-04-29 13:04 | 52.42177 | 6.56226 | 22153 ft | 420 kts | 313° |
| 2026-04-29 13:05 | 52.44012 | 6.52508 | 21604 ft | 417 kts | 313° |
| 2026-04-29 13:05 | 52.45773 | 6.48829 | 21047 ft | 416 kts | 308° |
| 2026-04-29 13:05 | 52.46965 | 6.44472 | 20486 ft | 424 kts | 287° |
| 2026-04-29 13:05 | 52.47358 | 6.39680 | 19968 ft | 425 kts | 278° |
| 2026-04-29 13:06 | 52.47568 | 6.34852 | 19385 ft | 423 kts | 277° |
| 2026-04-29 13:06 | 52.47756 | 6.30059 | 18837 ft | 419 kts | 277° |
| 2026-04-29 13:06 | 52.47954 | 6.25307 | 18274 ft | 415 kts | 277° |
| 2026-04-29 13:06 | 52.48168 | 6.20605 | 17728 ft | 411 kts | 277° |
| 2026-04-29 13:07 | 52.48391 | 6.15954 | 17185 ft | 407 kts | 278° |
| 2026-04-29 13:07 | 52.48616 | 6.11339 | 16650 ft | 403 kts | 277° |
| 2026-04-29 13:07 | 52.48836 | 6.06772 | 16123 ft | 399 kts | 277° |
| 2026-04-29 13:07 | 52.49051 | 6.02259 | 15596 ft | 395 kts | 277° |
| 2026-04-29 13:08 | 52.49262 | 5.97794 | 15078 ft | 391 kts | 277° |
| 2026-04-29 13:08 | 52.49471 | 5.93347 | 14564 ft | 390 kts | 277° |
| 2026-04-29 13:08 | 52.49677 | 5.88922 | 14051 ft | 388 kts | 277° |
| 2026-04-29 13:08 | 52.49880 | 5.84516 | 13537 ft | 387 kts | 276° |
| 2026-04-29 13:09 | 52.50082 | 5.80128 | 13028 ft | 384 kts | 276° |
| 2026-04-29 13:09 | 52.50280 | 5.75786 | 12534 ft | 379 kts | 276° |
| 2026-04-29 13:09 | 52.50473 | 5.71515 | 12006 ft | 368 kts | 276° |
| 2026-04-29 13:09 | 52.50656 | 5.67415 | 11525 ft | 353 kts | 276° |
| 2026-04-29 13:10 | 52.50830 | 5.63466 | 11069 ft | 340 kts | 276° |
| 2026-04-29 13:10 | 52.50993 | 5.59651 | 10626 ft | 330 kts | 274° |
| 2026-04-29 13:10 | 52.50677 | 5.55979 | 10323 ft | 323 kts | 250° |
| 2026-04-29 13:10 | 52.49715 | 5.52759 | 10343 ft | 307 kts | 239° |
| 2026-04-29 13:11 | 52.48615 | 5.49757 | 9926 ft | 306 kts | 237° |
| 2026-04-29 13:11 | 52.47515 | 5.46858 | 9614 ft | 298 kts | 237° |
| 2026-04-29 13:11 | 52.46430 | 5.43994 | 9349 ft | 294 kts | 237° |
| 2026-04-29 13:11 | 52.45360 | 5.41153 | 9112 ft | 293 kts | 237° |
| 2026-04-29 13:12 | 52.44293 | 5.38308 | 8881 ft | 293 kts | 237° |
| 2026-04-29 13:12 | 52.43231 | 5.35459 | 8653 ft | 292 kts | 237° |
| 2026-04-29 13:12 | 52.42189 | 5.32654 | 8432 ft | 293 kts | 237° |
| 2026-04-29 13:12 | 52.41132 | 5.29804 | 8194 ft | 292 kts | 237° |
| 2026-04-29 13:13 | 52.40077 | 5.26961 | 7969 ft | 292 kts | 237° |
| 2026-04-29 13:13 | 52.39022 | 5.24125 | 7736 ft | 291 kts | 237° |
| 2026-04-29 13:13 | 52.37971 | 5.21298 | 7494 ft | 290 kts | 237° |
| 2026-04-29 13:13 | 52.36926 | 5.18482 | 7260 ft | 289 kts | 237° |
| 2026-04-29 13:14 | 52.35888 | 5.15684 | 7037 ft | 286 kts | 237° |
| 2026-04-29 13:14 | 52.34867 | 5.12892 | 6816 ft | 285 kts | 237° |
| 2026-04-29 13:14 | 52.33853 | 5.10105 | 6589 ft | 284 kts | 237° |
| 2026-04-29 13:14 | 52.32847 | 5.07330 | 6354 ft | 283 kts | 237° |
| 2026-04-29 13:15 | 52.31849 | 5.04572 | 6142 ft | 282 kts | 237° |
| 2026-04-29 13:15 | 52.30855 | 5.01817 | 5929 ft | 280 kts | 237° |
| 2026-04-29 13:15 | 52.29868 | 4.99076 | 5663 ft | 279 kts | 237° |
| 2026-04-29 13:15 | 52.28883 | 4.96345 | 5362 ft | 279 kts | 237° |
| 2026-04-29 13:16 | 52.28233 | 4.94540 | 5178 ft | 278 kts | 237° |
| 2026-04-29 13:16 | 52.27259 | 4.91840 | 4838 ft | 275 kts | 237° |
| 2026-04-29 13:16 | 52.26282 | 4.89145 | 4440 ft | 275 kts | 237° |
| 2026-04-29 13:16 | 52.25312 | 4.86469 | 4082 ft | 273 kts | 237° |
| 2026-04-29 13:17 | 52.24347 | 4.83821 | 3734 ft | 271 kts | 237° |
| 2026-04-29 13:17 | 52.23385 | 4.81177 | 3376 ft | 270 kts | 237° |
| 2026-04-29 13:17 | 52.22431 | 4.78564 | 3255 ft | 264 kts | 237° |
| 2026-04-29 13:17 | 52.21506 | 4.76036 | 3184 ft | 256 kts | 237° |
| 2026-04-29 13:18 | 52.20612 | 4.73589 | 3090 ft | 248 kts | 237° |
| 2026-04-29 13:18 | 52.19735 | 4.71181 | 2881 ft | 246 kts | 237° |
| 2026-04-29 13:18 | 52.18857 | 4.68771 | 2613 ft | 247 kts | 238° |
| 2026-04-29 13:18 | 52.17969 | 4.66367 | 2420 ft | 246 kts | 237° |
| 2026-04-29 13:19 | 52.17100 | 4.64019 | 2357 ft | 238 kts | 237° |
| 2026-04-29 13:19 | 52.16255 | 4.61749 | 2282 ft | 230 kts | 237° |
| 2026-04-29 13:19 | 52.15444 | 4.59551 | 2198 ft | 224 kts | 239° |
| 2026-04-29 13:19 | 52.15002 | 4.57157 | 2043 ft | 224 kts | 274° |
| 2026-04-29 13:20 | 52.15441 | 4.54799 | 1992 ft | 216 kts | 310° |
| 2026-04-29 13:20 | 52.16548 | 4.53283 | 1995 ft | 206 kts | 340° |
| 2026-04-29 13:20 | 52.17837 | 4.52920 | 1983 ft | 193 kts | 15° |
| 2026-04-29 13:20 | 52.18997 | 4.53713 | 1993 ft | 175 kts | 33° |
| 2026-04-29 13:21 | 52.20055 | 4.54650 | 1985 ft | 172 kts | 32° |
| 2026-04-29 13:21 | 52.21102 | 4.55565 | 1981 ft | 170 kts | 32° |
| 2026-04-29 13:21 | 52.22118 | 4.56530 | 1984 ft | 167 kts | 43° |
| 2026-04-29 13:21 | 52.22828 | 4.57988 | 2002 ft | 165 kts | 57° |
| 2026-04-29 13:22 | 52.23474 | 4.59548 | 1961 ft | 169 kts | 58° |
| 2026-04-29 13:22 | 52.24098 | 4.61144 | 1770 ft | 162 kts | 59° |
| 2026-04-29 13:22 | 52.24677 | 4.62652 | 1563 ft | 152 kts | 59° |
| 2026-04-29 13:22 | 52.25210 | 4.64049 | 1377 ft | 141 kts | 59° |
| 2026-04-29 13:23 | 52.25706 | 4.65365 | 1247 ft | 129 kts | 59° |
| 2026-04-29 13:23 | 52.26162 | 4.66613 | 1039 ft | 130 kts | 59° |
| 2026-04-29 13:23 | 52.26653 | 4.67840 | 872 ft | 130 kts | 57° |
| 2026-04-29 13:23 | 52.27133 | 4.69106 | 709 ft | 133 kts | 59° |
| 2026-04-29 13:24 | 52.27629 | 4.70390 | 548 ft | 134 kts | 58° |
| 2026-04-29 13:24 | 52.28111 | 4.71650 | 327 ft | 132 kts | 58° |
| 2026-04-29 13:24 | 52.28595 | 4.72909 | 148 ft | 129 kts | 57° |
| 2026-04-29 13:24 | 52.29069 | 4.74128 | 6 ft | 124 kts | 58° |
| 2026-04-29 13:25 | 52.29475 | 4.75193 | -4 ft | 94 kts | 58° |
| 2026-04-29 13:25 | 52.29947 | 4.76418 | -4 ft | 25 kts | 52° |
| 2026-04-29 13:25 | 52.30057 | 4.76562 | -3 ft | 20 kts | 28° |
| 2026-04-29 13:26 | 52.30151 | 4.76645 | -2 ft | 11 kts | 27° |
| 2026-04-29 13:26 | 52.30221 | 4.76704 | -2 ft | 8 kts | 28° |
| 2026-04-29 13:26 | 52.30252 | 4.76733 | -2 ft | 4 kts | 29° |
| 2026-04-29 13:26 | 52.30280 | 4.76748 | -2 ft | 4 kts | 14° |
| 2026-04-29 13:27 | 52.30300 | 4.76786 | -2 ft | 5 kts | 62° |
| 2026-04-29 13:27 | 52.30323 | 4.76849 | -2 ft | 8 kts | 59° |
| 2026-04-29 13:27 | 52.30356 | 4.76937 | -2 ft | 10 kts | 59° |
| 2026-04-29 13:27 | 52.30399 | 4.77049 | -2 ft | 13 kts | 58° |
| 2026-04-29 13:28 | 52.30450 | 4.77183 | -2 ft | 15 kts | 58° |
| 2026-04-29 13:28 | 52.30509 | 4.77337 | -2 ft | 17 kts | 58° |
| 2026-04-29 13:28 | 52.30574 | 4.77506 | -2 ft | 18 kts | 54° |
| 2026-04-29 13:28 | 52.30680 | 4.77587 | -2 ft | 17 kts | 4° |
| 2026-04-29 13:29 | 52.30790 | 4.77598 | -2 ft | 12 kts | 357° |
| 2026-04-29 13:29 | 52.30833 | 4.77498 | -2 ft | 12 kts | 275° |
| 2026-04-29 13:29 | 52.30839 | 4.77384 | -2 ft | 4 kts | 289° |
| 2026-04-29 13:29 | 52.30863 | 4.77366 | -2 ft | 4 kts | 348° |
| 2026-04-29 13:30 | 52.30887 | 4.77366 | -2 ft | 1 kts | 2° |
| 2026-04-29 13:30 | 52.30895 | 4.77367 | -2 ft | 0 kts | 3° |